Terminal Aerodrome Forecast
Issued by NWS Binghamton, NY

Home | Current Version | Previous Version | Text Only | Print | Product List | Glossary On
Versions: 1 2 3 4 5 6 7 8 9 10 11 12 13 14 15 16 17
000
FTUS41 KBGM 102337
TAFSYR
TAF
KSYR 102337Z 1100/1124 23010KT 4SM -SN BKN030
      TEMPO 1100/1103 2SM -SN BR BKN025
     FM110600 24009KT 5SM -SHSN BKN040
     FM110900 25008KT 1SM -SN OVC012
     FM111300 32011KT 6SM -SHSN BKN035
     FM112000 VRB05KT P6SM SCT050 BKN090=

USA.gov is the U.S. government's official web portal to all federal, state and local government web resources and services.